This is the latest recevied weather packets stored in our database for station/object EA1ZE. If no packets are shown the sender has not sent any weather packets the latest 10 day(s).
| Time | Temp. | Humidity | Pressure | Rain* | Wind** | Luminosity | Snow |
|---|---|---|---|---|---|---|---|
| 1787710517 | 17.78° C | 66% | 1011.2 hPa | 0 mm | - | - | - |
| 1787709617 | 18.33° C | 66% | 1011.4 hPa | 0 mm | - | - | - |
| 1787708715 | 18.33° C | 66% | 1011.4 hPa | 0 mm | - | - | - |
| 1787707813 | 18.33° C | 66% | 1011.3 hPa | 0 mm | - | - | - |
| 1787706913 | 18.33° C | 66% | 1011.5 hPa | 0 mm | - | - | - |
| 1787706018 | 17.78° C | 67% | 1011.4 hPa | 0 mm | - | - | - |
| 1787705111 | 18.33° C | 67% | 1011.8 hPa | 0 mm | - | - | - |
| 1787704212 | 18.33° C | 67% | 1012.1 hPa | 0 mm | - | - | - |
| 1787703308 | 17.78° C | 67% | 1011.9 hPa | 0 mm | - | - | - |
| 1787702407 | 17.78° C | 67% | 1011.9 hPa | 0 mm | - | - | - |
| 1787701508 | 18.33° C | 67% | 1012.1 hPa | 0 mm | - | - | - |
| 1787700601 | 18.33° C | 65% | 1012.2 hPa | 0 mm | - | - | - |
| 1787699760 | 18.33° C | 65% | 1012.5 hPa | 0 mm | - | - | - |
| 1787698861 | 18.89° C | 64% | 1012.7 hPa | 0 mm | - | - | - |
| 1787697957 | 18.89° C | 62% | 1012.6 hPa | 0 mm | - | - | - |
| 1787697053 | 19.44° C | 63% | 1012.7 hPa | 0 mm | - | - | - |
| 1787696151 | 19.44° C | 61% | 1012.7 hPa | 0 mm | - | - | - |
| 1787695249 | 19.44° C | 61% | 1012.8 hPa | 0 mm | - | - | - |
| 1787694349 | 20° C | 60% | 1012.9 hPa | 0 mm | - | - | - |
| 1787693452 | 20° C | 58% | 1012.9 hPa | 0 mm | - | - | - |
| 1787692590 | 20.56° C | 58% | 1012.8 hPa | 0 mm | - | - | - |
| 1787691693 | 20.56° C | 56% | 1012.7 hPa | 0 mm | - | - | - |
| 1787690814 | 21.11° C | 56% | 1012.8 hPa | 0 mm | - | - | - |
| 1787689909 | 21.11° C | 54% | 1012.6 hPa | 0 mm | - | - | - |
| 1787688908 | - | - | 1012.5 hPa | 0 mm | - | - | - |
* Rain latest hour (hover to see other rain measurements)
** Current wind speed in m/s (hover to see current wind gust speed)